sensor_id;sensor_type;location;lat;lon;timestamp;pressure;altitude;pressure_sealevel;temperature
78225;BMP280;67498;53.650;10.090;2023-10-09T00:00:50;102041.84;;;11.08
78225;BMP280;67498;53.650;10.090;2023-10-09T00:03:19;102040.38;;;11.07
78225;BMP280;67498;53.650;10.090;2023-10-09T00:05:47;102029.13;;;11.07
78225;BMP280;67498;53.650;10.090;2023-10-09T00:08:16;101998.16;;;11.05
78225;BMP280;67498;53.650;10.090;2023-10-09T00:10:51;101983.16;;;11.02
78225;BMP280;67498;53.650;10.090;2023-10-09T00:13:23;101983.94;;;11.02
78225;BMP280;67498;53.650;10.090;2023-10-09T00:16:05;101956.63;;;10.96
78225;BMP280;67498;53.650;10.090;2023-10-09T00:18:39;101965.28;;;11.00
78225;BMP280;67498;53.650;10.090;2023-10-09T00:21:04;101941.72;;;10.97
78225;BMP280;67498;53.650;10.090;2023-10-09T00:23:36;101948.41;;;10.94
78225;BMP280;67498;53.650;10.090;2023-10-09T00:26:02;101927.91;;;10.93
78225;BMP280;67498;53.650;10.090;2023-10-09T00:28:36;101924.13;;;10.90
78225;BMP280;67498;53.650;10.090;2023-10-09T00:31:05;101916.25;;;10.83
78225;BMP280;67498;53.650;10.090;2023-10-09T00:33:35;101923.00;;;10.84
78225;BMP280;67498;53.650;10.090;2023-10-09T00:36:04;101921.84;;;10.82
78225;BMP280;67498;53.650;10.090;2023-10-09T00:38:36;101900.16;;;10.74
78225;BMP280;67498;53.650;10.090;2023-10-09T00:41:05;101897.91;;;10.76
78225;BMP280;67498;53.650;10.090;2023-10-09T00:43:33;101884.84;;;10.72
78225;BMP280;67498;53.650;10.090;2023-10-09T00:46:01;101907.63;;;10.75
78225;BMP280;67498;53.650;10.090;2023-10-09T00:48:55;101904.59;;;10.73
78225;BMP280;67498;53.650;10.090;2023-10-09T00:51:22;101889.66;;;10.70
78225;BMP280;67498;53.650;10.090;2023-10-09T00:56:17;101886.66;;;10.68
78225;BMP280;67498;53.650;10.090;2023-10-09T00:59:07;101872.84;;;10.64
78225;BMP280;67498;53.650;10.090;2023-10-09T01:01:33;101865.72;;;10.61
78225;BMP280;67498;53.650;10.090;2023-10-09T01:04:04;101863.50;;;10.60
78225;BMP280;67498;53.650;10.090;2023-10-09T01:06:37;101855.69;;;10.60
78225;BMP280;67498;53.650;10.090;2023-10-09T01:09:12;101857.91;;;10.58
78225;BMP280;67498;53.650;10.090;2023-10-09T01:11:39;101848.53;;;10.57
78225;BMP280;67498;53.650;10.090;2023-10-09T01:14:16;101842.91;;;10.54
78225;BMP280;67498;53.650;10.090;2023-10-09T01:16:42;101843.69;;;10.55
78225;BMP280;67498;53.650;10.090;2023-10-09T01:19:08;101847.41;;;10.54
78225;BMP280;67498;53.650;10.090;2023-10-09T01:21:52;101829.09;;;10.47
78225;BMP280;67498;53.650;10.090;2023-10-09T01:24:17;101822.03;;;10.51
78225;BMP280;67498;53.650;10.090;2023-10-09T01:26:45;101827.63;;;10.49
78225;BMP280;67498;53.650;10.090;2023-10-09T01:29:16;101814.19;;;10.47
78225;BMP280;67498;53.650;10.090;2023-10-09T01:31:46;101794.75;;;10.41
78225;BMP280;67498;53.650;10.090;2023-10-09T01:34:23;101800.38;;;10.47
78225;BMP280;67498;53.650;10.090;2023-10-09T01:37:22;101798.50;;;10.40
78225;BMP280;67498;53.650;10.090;2023-10-09T01:39:48;101808.91;;;10.44
78225;BMP280;67498;53.650;10.090;2023-10-09T01:42:14;101813.03;;;10.41
78225;BMP280;67498;53.650;10.090;2023-10-09T01:44:52;101818.25;;;10.41
78225;BMP280;67498;53.650;10.090;2023-10-09T01:47:18;101805.16;;;10.34
78225;BMP280;67498;53.650;10.090;2023-10-09T01:49:44;101810.38;;;10.38
78225;BMP280;67498;53.650;10.090;2023-10-09T01:52:14;101803.72;;;10.40
78225;BMP280;67498;53.650;10.090;2023-10-09T01:54:42;101776.44;;;10.38
78225;BMP280;67498;53.650;10.090;2023-10-09T01:57:12;101777.22;;;10.38
78225;BMP280;67498;53.650;10.090;2023-10-09T01:59:38;101779.09;;;10.41
78225;BMP280;67498;53.650;10.090;2023-10-09T02:02:08;101801.09;;;10.44
78225;BMP280;67498;53.650;10.090;2023-10-09T02:05:06;101798.84;;;10.39
78225;BMP280;67498;53.650;10.090;2023-10-09T02:07:38;101777.94;;;10.39
78225;BMP280;67498;53.650;10.090;2023-10-09T02:10:12;101763.38;;;10.34
78225;BMP280;67498;53.650;10.090;2023-10-09T02:12:51;101778.28;;;10.37
78225;BMP280;67498;53.650;10.090;2023-10-09T02:15:33;101772.69;;;10.31
78225;BMP280;67498;53.650;10.090;2023-10-09T02:18:09;101784.66;;;10.36
78225;BMP280;67498;53.650;10.090;2023-10-09T02:21:11;101782.78;;;10.33
78225;BMP280;67498;53.650;10.090;2023-10-09T02:23:36;101760.72;;;10.27
78225;BMP280;67498;53.650;10.090;2023-10-09T02:26:15;101769.34;;;10.31
78225;BMP280;67498;53.650;10.090;2023-10-09T02:28:45;101765.22;;;10.30
78225;BMP280;67498;53.650;10.090;2023-10-09T02:31:17;101747.66;;;10.27
78225;BMP280;67498;53.650;10.090;2023-10-09T02:33:47;101738.72;;;10.28
78225;BMP280;67498;53.650;10.090;2023-10-09T02:36:15;101761.13;;;10.29
78225;BMP280;67498;53.650;10.090;2023-10-09T02:38:40;101762.56;;;10.23
78225;BMP280;67498;53.650;10.090;2023-10-09T02:41:08;101747.31;;;10.28
78225;BMP280;67498;53.650;10.090;2023-10-09T02:43:39;101744.72;;;10.28
78225;BMP280;67498;53.650;10.090;2023-10-09T02:46:18;101749.16;;;10.28
78225;BMP280;67498;53.650;10.090;2023-10-09T02:48:46;101751.44;;;10.26
78225;BMP280;67498;53.650;10.090;2023-10-09T02:51:21;101735.00;;;10.25
78225;BMP280;67498;53.650;10.090;2023-10-09T02:56:17;101719.28;;;10.18
78225;BMP280;67498;53.650;10.090;2023-10-09T02:58:52;101729.00;;;10.21
78225;BMP280;67498;53.650;10.090;2023-10-09T03:01:17;101728.25;;;10.21
78225;BMP280;67498;53.650;10.090;2023-10-09T03:03:43;101717.06;;;10.17
78225;BMP280;67498;53.650;10.090;2023-10-09T03:06:15;101715.94;;;10.18
78225;BMP280;67498;53.650;10.090;2023-10-09T03:08:50;101709.28;;;10.24
78225;BMP280;67498;53.650;10.090;2023-10-09T03:11:15;101700.66;;;10.23
78225;BMP280;67498;53.650;10.090;2023-10-09T03:13:42;101708.50;;;10.23
78225;BMP280;67498;53.650;10.090;2023-10-09T03:16:09;101691.31;;;10.15
78225;BMP280;67498;53.650;10.090;2023-10-09T03:18:44;101688.31;;;10.13
78225;BMP280;67498;53.650;10.090;2023-10-09T03:21:09;101679.75;;;10.16
78225;BMP280;67498;53.650;10.090;2023-10-09T03:23:35;101680.50;;;10.13
78225;BMP280;67498;53.650;10.090;2023-10-09T03:26:00;101688.72;;;10.15
78225;BMP280;67498;53.650;10.090;2023-10-09T03:28:25;101681.63;;;10.16
78225;BMP280;67498;53.650;10.090;2023-10-09T03:30:51;101682.75;;;10.15
78225;BMP280;67498;53.650;10.090;2023-10-09T03:33:18;101673.41;;;10.14
78225;BMP280;67498;53.650;10.090;2023-10-09T03:35:43;101657.38;;;10.08
78225;BMP280;67498;53.650;10.090;2023-10-09T03:38:08;101655.88;;;10.07
78225;BMP280;67498;53.650;10.090;2023-10-09T03:40:41;101651.34;;;10.04
78225;BMP280;67498;53.650;10.090;2023-10-09T03:43:08;101651.34;;;10.04
78225;BMP280;67498;53.650;10.090;2023-10-09T03:45:35;101652.50;;;10.06
78225;BMP280;67498;53.650;10.090;2023-10-09T03:48:00;101661.78;;;10.00
78225;BMP280;67498;53.650;10.090;2023-10-09T03:50:47;101669.22;;;10.02
78225;BMP280;67498;53.650;10.090;2023-10-09T03:53:13;101661.06;;;10.00
78225;BMP280;67498;53.650;10.090;2023-10-09T03:55:39;101656.56;;;10.00
78225;BMP280;67498;53.650;10.090;2023-10-09T03:58:06;101646.88;;;10.01
78225;BMP280;67498;53.650;10.090;2023-10-09T04:00:32;101653.25;;;10.00
78225;BMP280;67498;53.650;10.090;2023-10-09T04:03:06;101641.25;;;9.92
78225;BMP280;67498;53.650;10.090;2023-10-09T04:05:31;101643.88;;;9.92
78225;BMP280;67498;53.650;10.090;2023-10-09T04:07:57;101650.94;;;9.91
78225;BMP280;67498;53.650;10.090;2023-10-09T04:10:24;101639.38;;;9.89
78225;BMP280;67498;53.650;10.090;2023-10-09T04:13:10;101627.44;;;9.88
78225;BMP280;67498;53.650;10.090;2023-10-09T04:15:37;101631.53;;;9.89
78225;BMP280;67498;53.650;10.090;2023-10-09T04:18:03;101630.81;;;9.88
78225;BMP280;67498;53.650;10.090;2023-10-09T04:20:30;101630.41;;;9.86
78225;BMP280;67498;53.650;10.090;2023-10-09T04:22:58;101621.81;;;9.78
78225;BMP280;67498;53.650;10.090;2023-10-09T04:25:30;101633.38;;;9.81
78225;BMP280;67498;53.650;10.090;2023-10-09T04:28:07;101625.16;;;9.79
78225;BMP280;67498;53.650;10.090;2023-10-09T04:30:44;101620.66;;;9.76
78225;BMP280;67498;53.650;10.090;2023-10-09T04:33:14;101622.91;;;9.77
78225;BMP280;67498;53.650;10.090;2023-10-09T04:36:05;101619.59;;;9.84
78225;BMP280;67498;53.650;10.090;2023-10-09T04:38:46;101624.81;;;9.84
78225;BMP280;67498;53.650;10.090;2023-10-09T04:41:39;101622.16;;;9.80
78225;BMP280;67498;53.650;10.090;2023-10-09T04:44:07;101607.22;;;9.74
78225;BMP280;67498;53.650;10.090;2023-10-09T04:46:49;101600.53;;;9.73
78225;BMP280;67498;53.650;10.090;2023-10-09T04:49:43;101623.63;;;9.74
78225;BMP280;67498;53.650;10.090;2023-10-09T04:52:26;101632.94;;;9.75
78225;BMP280;67498;53.650;10.090;2023-10-09T04:54:55;101614.66;;;9.65
78225;BMP280;67498;53.650;10.090;2023-10-09T04:57:37;101632.56;;;9.73
78225;BMP280;67498;53.650;10.090;2023-10-09T05:00:09;101630.34;;;9.72
78225;BMP280;67498;53.650;10.090;2023-10-09T05:02:57;101613.94;;;9.71
78225;BMP280;67498;53.650;10.090;2023-10-09T05:05:34;101610.56;;;9.67
78225;BMP280;67498;53.650;10.090;2023-10-09T05:08:15;101613.19;;;9.71
78225;BMP280;67498;53.650;10.090;2023-10-09T05:10:45;101602.34;;;9.65
78225;BMP280;67498;53.650;10.090;2023-10-09T05:13:35;101602.75;;;9.71
78225;BMP280;67498;53.650;10.090;2023-10-09T05:16:03;101591.97;;;9.72
78225;BMP280;67498;53.650;10.090;2023-10-09T05:18:28;101573.69;;;9.69
78225;BMP280;67498;53.650;10.090;2023-10-09T05:21:02;101563.22;;;9.65
78225;BMP280;67498;53.650;10.090;2023-10-09T05:23:47;101577.03;;;9.69
78225;BMP280;67498;53.650;10.090;2023-10-09T05:26:36;101582.25;;;9.69
78225;BMP280;67498;53.650;10.090;2023-10-09T05:32:00;101577.81;;;9.73
78225;BMP280;67498;53.650;10.090;2023-10-09T05:34:26;101569.56;;;9.68
78225;BMP280;67498;53.650;10.090;2023-10-09T05:37:04;101575.94;;;9.70
78225;BMP280;67498;53.650;10.090;2023-10-09T05:39:46;101571.09;;;9.69
78225;BMP280;67498;53.650;10.090;2023-10-09T05:42:32;101568.44;;;9.65
78225;BMP280;67498;53.650;10.090;2023-10-09T05:47:52;101568.47;;;9.69
78225;BMP280;67498;53.650;10.090;2023-10-09T05:50:30;101578.91;;;9.69
78225;BMP280;67498;53.650;10.090;2023-10-09T05:53:21;101584.81;;;9.66
78225;BMP280;67498;53.650;10.090;2023-10-09T05:56:05;101593.84;;;9.72
78225;BMP280;67498;53.650;10.090;2023-10-09T05:58:48;101586.69;;;9.65
78225;BMP280;67498;53.650;10.090;2023-10-09T06:01:33;101577.03;;;9.69
78225;BMP280;67498;53.650;10.090;2023-10-09T06:04:21;101567.72;;;9.68
78225;BMP280;67498;53.650;10.090;2023-10-09T06:06:59;101556.19;;;9.73
78225;BMP280;67498;53.650;10.090;2023-10-09T06:09:36;101575.53;;;9.68
78225;BMP280;67498;53.650;10.090;2023-10-09T06:12:15;101582.97;;;9.63
78225;BMP280;67498;53.650;10.090;2023-10-09T06:15:02;101586.69;;;9.62
78225;BMP280;67498;53.650;10.090;2023-10-09T06:17:46;101586.31;;;9.59
78225;BMP280;67498;53.650;10.090;2023-10-09T06:20:17;101590.78;;;9.59
78225;BMP280;67498;53.650;10.090;2023-10-09T06:23:01;101580.34;;;9.59
78225;BMP280;67498;53.650;10.090;2023-10-09T06:25:43;101574.75;;;9.60
78225;BMP280;67498;53.650;10.090;2023-10-09T06:28:32;101568.75;;;9.56
78225;BMP280;67498;53.650;10.090;2023-10-09T06:31:00;101586.31;;;9.59
78225;BMP280;67498;53.650;10.090;2023-10-09T06:33:45;101587.41;;;9.55
78225;BMP280;67498;53.650;10.090;2023-10-09T06:36:30;101569.16;;;9.55
78225;BMP280;67498;53.650;10.090;2023-10-09T06:38:56;101564.69;;;9.55
78225;BMP280;67498;53.650;10.090;2023-10-09T06:41:41;101555.03;;;9.59
78225;BMP280;67498;53.650;10.090;2023-10-09T06:44:10;101553.91;;;9.60
78225;BMP280;67498;53.650;10.090;2023-10-09T06:46:55;101535.22;;;9.51
78225;BMP280;67498;53.650;10.090;2023-10-09T06:49:22;101536.38;;;9.54
78225;BMP280;67498;53.650;10.090;2023-10-09T06:52:01;101550.50;;;9.53
78225;BMP280;67498;53.650;10.090;2023-10-09T06:54:40;101564.69;;;9.55
78225;BMP280;67498;53.650;10.090;2023-10-09T06:57:14;101565.06;;;9.57
78225;BMP280;67498;53.650;10.090;2023-10-09T06:59:39;101556.06;;;9.51
78225;BMP280;67498;53.650;10.090;2023-10-09T07:02:08;101552.72;;;9.51
78225;BMP280;67498;53.650;10.090;2023-10-09T07:04:34;101554.63;;;9.57
78225;BMP280;67498;53.650;10.090;2023-10-09T07:06:59;101547.16;;;9.52
78225;BMP280;67498;53.650;10.090;2023-10-09T07:09:27;101539.31;;;9.45
78225;BMP280;67498;53.650;10.090;2023-10-09T07:12:08;101543.81;;;9.52
78225;BMP280;67498;53.650;10.090;2023-10-09T07:14:36;101540.47;;;9.55
78225;BMP280;67498;53.650;10.090;2023-10-09T07:19:46;101544.25;;;9.65
78225;BMP280;67498;53.650;10.090;2023-10-09T07:22:12;101541.25;;;9.66
78225;BMP280;67498;53.650;10.090;2023-10-09T07:24:50;101526.00;;;9.65
78225;BMP280;67498;53.650;10.090;2023-10-09T07:27:22;101533.81;;;9.68
78225;BMP280;67498;53.650;10.090;2023-10-09T07:30:07;101533.06;;;9.68
78225;BMP280;67498;53.650;10.090;2023-10-09T07:32:54;101540.13;;;9.64
78225;BMP280;67498;53.650;10.090;2023-10-09T07:35:23;101535.28;;;9.62
78225;BMP280;67498;53.650;10.090;2023-10-09T07:38:07;101547.97;;;9.71
78225;BMP280;67498;53.650;10.090;2023-10-09T07:40:38;101524.50;;;9.67
78225;BMP280;67498;53.650;10.090;2023-10-09T07:43:29;101524.91;;;9.73
78225;BMP280;67498;53.650;10.090;2023-10-09T07:46:02;101530.81;;;9.66
78225;BMP280;67498;53.650;10.090;2023-10-09T07:48:27;101527.84;;;9.68
78225;BMP280;67498;53.650;10.090;2023-10-09T07:51:12;101527.50;;;9.69
78225;BMP280;67498;53.650;10.090;2023-10-09T07:53:37;101528.25;;;9.70
78225;BMP280;67498;53.650;10.090;2023-10-09T07:56:09;101546.50;;;9.73
78225;BMP280;67498;53.650;10.090;2023-10-09T07:58:35;101545.41;;;9.78
78225;BMP280;67498;53.650;10.090;2023-10-09T08:01:11;101543.59;;;9.82
78225;BMP280;67498;53.650;10.090;2023-10-09T08:03:56;101530.50;;;9.71
78225;BMP280;67498;53.650;10.090;2023-10-09T08:06:30;101541.34;;;9.84
78225;BMP280;67498;53.650;10.090;2023-10-09T08:09:07;101527.56;;;9.83
78225;BMP280;67498;53.650;10.090;2023-10-09T08:11:47;101527.56;;;9.87
78225;BMP280;67498;53.650;10.090;2023-10-09T08:14:39;101526.47;;;9.92
78225;BMP280;67498;53.650;10.090;2023-10-09T08:17:13;101537.28;;;9.94
78225;BMP280;67498;53.650;10.090;2023-10-09T08:19:41;101531.72;;;9.95
78225;BMP280;67498;53.650;10.090;2023-10-09T08:22:26;101539.91;;;9.97
78225;BMP280;67498;53.650;10.090;2023-10-09T08:24:52;101527.97;;;9.93
78225;BMP280;67498;53.650;10.090;2023-10-09T08:27:22;101524.59;;;9.92
78225;BMP280;67498;53.650;10.090;2023-10-09T08:30:00;101532.81;;;9.94
78225;BMP280;67498;53.650;10.090;2023-10-09T08:32:58;101538.06;;;9.98
78225;BMP280;67498;53.650;10.090;2023-10-09T08:35:29;101539.53;;;9.99
78225;BMP280;67498;53.650;10.090;2023-10-09T08:37:56;101534.69;;;10.01
78225;BMP280;67498;53.650;10.090;2023-10-09T08:40:35;101541.06;;;10.07
78225;BMP280;67498;53.650;10.090;2023-10-09T08:43:20;101543.31;;;10.08
78225;BMP280;67498;53.650;10.090;2023-10-09T08:45:48;101541.06;;;10.11
78225;BMP280;67498;53.650;10.090;2023-10-09T08:48:14;101544.78;;;10.13
78225;BMP280;67498;53.650;10.090;2023-10-09T08:50:44;101526.13;;;10.04
78225;BMP280;67498;53.650;10.090;2023-10-09T08:53:13;101543.31;;;10.16
78225;BMP280;67498;53.650;10.090;2023-10-09T08:55:40;101545.56;;;10.17
78225;BMP280;67498;53.650;10.090;2023-10-09T08:58:06;101537.72;;;10.21
78225;BMP280;67498;53.650;10.090;2023-10-09T09:00:58;101542.63;;;10.26
78225;BMP280;67498;53.650;10.090;2023-10-09T09:03:26;101536.63;;;10.29
78225;BMP280;67498;53.650;10.090;2023-10-09T09:05:59;101525.44;;;10.25
78225;BMP280;67498;53.650;10.090;2023-10-09T09:08:32;101539.63;;;10.31
78225;BMP280;67498;53.650;10.090;2023-10-09T09:11:09;101521.34;;;10.27
78225;BMP280;67498;53.650;10.090;2023-10-09T09:13:43;101533.28;;;10.32
78225;BMP280;67498;53.650;10.090;2023-10-09T09:16:16;101534.03;;;10.29
78225;BMP280;67498;53.650;10.090;2023-10-09T09:21:33;101529.56;;;10.37
78225;BMP280;67498;53.650;10.090;2023-10-09T09:24:22;101531.44;;;10.36
78225;BMP280;67498;53.650;10.090;2023-10-09T09:26:51;101528.44;;;10.38
78225;BMP280;67498;53.650;10.090;2023-10-09T09:29:40;101539.25;;;10.43
78225;BMP280;67498;53.650;10.090;2023-10-09T09:32:07;101544.47;;;10.43
78225;BMP280;67498;53.650;10.090;2023-10-09T09:34:49;101529.56;;;10.37
78225;BMP280;67498;53.650;10.090;2023-10-09T09:37:19;101529.94;;;10.42
78225;BMP280;67498;53.650;10.090;2023-10-09T09:39:46;101520.63;;;10.48
78225;BMP280;67498;53.650;10.090;2023-10-09T09:42:17;101515.06;;;10.50
78225;BMP280;67498;53.650;10.090;2023-10-09T09:44:44;101510.19;;;10.55
78225;BMP280;67498;53.650;10.090;2023-10-09T09:47:13;101510.56;;;10.61
78225;BMP280;67498;53.650;10.090;2023-10-09T09:49:42;101505.75;;;10.67
78225;BMP280;67498;53.650;10.090;2023-10-09T09:52:09;101508.34;;;10.81
78225;BMP280;67498;53.650;10.090;2023-10-09T09:54:38;101518.41;;;10.86
78225;BMP280;67498;53.650;10.090;2023-10-09T09:57:06;101511.28;;;10.87
78225;BMP280;67498;53.650;10.090;2023-10-09T09:59:37;101509.44;;;10.87
78225;BMP280;67498;53.650;10.090;2023-10-09T10:02:05;101504.59;;;10.89
78225;BMP280;67498;53.650;10.090;2023-10-09T10:04:35;101504.19;;;10.94
78225;BMP280;67498;53.650;10.090;2023-10-09T10:07:02;101508.31;;;10.95
78225;BMP280;67498;53.650;10.090;2023-10-09T10:09:41;101500.84;;;10.94
78225;BMP280;67498;53.650;10.090;2023-10-09T10:12:10;101503.81;;;10.99
78225;BMP280;67498;53.650;10.090;2023-10-09T10:15:02;101500.47;;;11.02
78225;BMP280;67498;53.650;10.090;2023-10-09T10:20:28;101495.25;;;10.99
78225;BMP280;67498;53.650;10.090;2023-10-09T10:23:17;101495.97;;;11.07
78225;BMP280;67498;53.650;10.090;2023-10-09T10:25:43;101491.09;;;11.09
78225;BMP280;67498;53.650;10.090;2023-10-09T10:28:24;101479.53;;;11.06
78225;BMP280;67498;53.650;10.090;2023-10-09T10:31:10;101486.63;;;11.16
78225;BMP280;67498;53.650;10.090;2023-10-09T10:36:20;101503.03;;;11.24
78225;BMP280;67498;53.650;10.090;2023-10-09T10:39:09;101510.13;;;11.23
78225;BMP280;67498;53.650;10.090;2023-10-09T10:41:36;101500.41;;;11.17
78225;BMP280;67498;53.650;10.090;2023-10-09T10:44:15;101512.00;;;11.23
78225;BMP280;67498;53.650;10.090;2023-10-09T10:47:00;101506.03;;;11.22
78225;BMP280;67498;53.650;10.090;2023-10-09T10:49:27;101491.44;;;11.18
78225;BMP280;67498;53.650;10.090;2023-10-09T10:52:02;101494.06;;;11.18
78225;BMP280;67498;53.650;10.090;2023-10-09T10:54:40;101497.06;;;11.20
78225;BMP280;67498;53.650;10.090;2023-10-09T10:57:21;101498.91;;;11.23
78225;BMP280;67498;53.650;10.090;2023-10-09T11:00:16;101502.28;;;11.23
78225;BMP280;67498;53.650;10.090;2023-10-09T11:03:04;101509.34;;;11.30
78225;BMP280;67498;53.650;10.090;2023-10-09T11:05:42;101508.63;;;11.30
78225;BMP280;67498;53.650;10.090;2023-10-09T11:08:11;101505.25;;;11.29
78225;BMP280;67498;53.650;10.090;2023-10-09T11:10:37;101498.53;;;11.32
78225;BMP280;67498;53.650;10.090;2023-10-09T11:13:21;101501.09;;;11.35
78225;BMP280;67498;53.650;10.090;2023-10-09T11:15:56;101489.53;;;11.40
78225;BMP280;67498;53.650;10.090;2023-10-09T11:18:40;101490.25;;;11.44
78225;BMP280;67498;53.650;10.090;2023-10-09T11:21:13;101488.00;;;11.42
78225;BMP280;67498;53.650;10.090;2023-10-09T11:23:48;101486.91;;;11.40
78225;BMP280;67498;53.650;10.090;2023-10-09T11:26:24;101497.34;;;11.47
78225;BMP280;67498;53.650;10.090;2023-10-09T11:29:12;101493.22;;;11.49
78225;BMP280;67498;53.650;10.090;2023-10-09T11:32:02;101491.34;;;11.54
78225;BMP280;67498;53.650;10.090;2023-10-09T11:34:28;101481.28;;;11.45
78225;BMP280;67498;53.650;10.090;2023-10-09T11:39:37;101493.59;;;11.55
78225;BMP280;67498;53.650;10.090;2023-10-09T11:42:18;101491.31;;;11.57
78225;BMP280;67498;53.650;10.090;2023-10-09T11:45:02;101489.84;;;11.60
78225;BMP280;67498;53.650;10.090;2023-10-09T11:47:44;101476.34;;;11.61
78225;BMP280;67498;53.650;10.090;2023-10-09T11:50:19;101486.00;;;11.75
78225;BMP280;67498;53.650;10.090;2023-10-09T11:52:58;101480.41;;;11.77
78225;BMP280;67498;53.650;10.090;2023-10-09T11:55:44;101488.59;;;11.82
78225;BMP280;67498;53.650;10.090;2023-10-09T11:58:16;101480.38;;;11.84
78225;BMP280;67498;53.650;10.090;2023-10-09T12:00:52;101474.72;;;11.85
78225;BMP280;67498;53.650;10.090;2023-10-09T12:03:23;101476.22;;;11.86
78225;BMP280;67498;53.650;10.090;2023-10-09T12:05:53;101473.97;;;11.88
78225;BMP280;67498;53.650;10.090;2023-10-09T12:08:21;101477.97;;;12.00
78225;BMP280;67498;53.650;10.090;2023-10-09T12:10:47;101467.19;;;11.98
78225;BMP280;67498;53.650;10.090;2023-10-09T12:13:13;101475.69;;;12.09
78225;BMP280;67498;53.650;10.090;2023-10-09T12:15:40;101473.06;;;12.09
78225;BMP280;67498;53.650;10.090;2023-10-09T12:18:07;101468.97;;;12.08
78225;BMP280;67498;53.650;10.090;2023-10-09T12:20:41;101470.44;;;12.09
78225;BMP280;67498;53.650;10.090;2023-10-09T12:23:06;101469.38;;;12.07
78225;BMP280;67498;53.650;10.090;2023-10-09T12:25:33;101468.94;;;12.12
78225;BMP280;67498;53.650;10.090;2023-10-09T12:28:00;101477.56;;;12.12
78225;BMP280;67498;53.650;10.090;2023-10-09T12:30:29;101476.44;;;12.10
78225;BMP280;67498;53.650;10.090;2023-10-09T12:32:58;101476.84;;;12.05
78225;BMP280;67498;53.650;10.090;2023-10-09T12:35:26;101483.16;;;12.07
78225;BMP280;67498;53.650;10.090;2023-10-09T12:37:53;101487.28;;;12.12
78225;BMP280;67498;53.650;10.090;2023-10-09T12:40:23;101490.28;;;12.10
78225;BMP280;67498;53.650;10.090;2023-10-09T12:42:56;101495.84;;;12.16
78225;BMP280;67498;53.650;10.090;2023-10-09T12:45:25;101482.78;;;12.09
78225;BMP280;67498;53.650;10.090;2023-10-09T12:47:58;101490.59;;;12.16
78225;BMP280;67498;53.650;10.090;2023-10-09T12:50:34;101486.91;;;12.13
78225;BMP280;67498;53.650;10.090;2023-10-09T12:53:00;101484.63;;;12.15
78225;BMP280;67498;53.650;10.090;2023-10-09T12:55:37;101484.16;;;12.24
78225;BMP280;67498;53.650;10.090;2023-10-09T12:58:06;101474.84;;;12.23
78225;BMP280;67498;53.650;10.090;2023-10-09T13:00:36;101480.06;;;12.27
78225;BMP280;67498;53.650;10.090;2023-10-09T13:03:14;101481.91;;;12.30
78225;BMP280;67498;53.650;10.090;2023-10-09T13:05:53;101463.97;;;12.28
78225;BMP280;67498;53.650;10.090;2023-10-09T13:08:26;101465.38;;;12.36
78225;BMP280;67498;53.650;10.090;2023-10-09T13:11:03;101467.97;;;12.40
78225;BMP280;67498;53.650;10.090;2023-10-09T13:13:58;101463.13;;;12.38
78225;BMP280;67498;53.650;10.090;2023-10-09T13:16:36;101454.56;;;12.34
78225;BMP280;67498;53.650;10.090;2023-10-09T13:19:02;101466.44;;;12.46
78225;BMP280;67498;53.650;10.090;2023-10-09T13:21:34;101473.09;;;12.54
78225;BMP280;67498;53.650;10.090;2023-10-09T13:24:02;101461.88;;;12.54
78225;BMP280;67498;53.650;10.090;2023-10-09T13:26:28;101468.22;;;12.56
78225;BMP280;67498;53.650;10.090;2023-10-09T13:28:56;101469.31;;;12.59
78225;BMP280;67498;53.650;10.090;2023-10-09T13:31:23;101475.94;;;12.67
78225;BMP280;67498;53.650;10.090;2023-10-09T13:33:52;101462.50;;;12.65
78225;BMP280;67498;53.650;10.090;2023-10-09T13:36:21;101476.66;;;12.71
78225;BMP280;67498;53.650;10.090;2023-10-09T13:38:53;101473.63;;;12.76
78225;BMP280;67498;53.650;10.090;2023-10-09T13:41:19;101475.50;;;12.76
78225;BMP280;67498;53.650;10.090;2023-10-09T13:43:45;101480.69;;;12.83
78225;BMP280;67498;53.650;10.090;2023-10-09T13:46:10;101473.19;;;12.81
78225;BMP280;67498;53.650;10.090;2023-10-09T13:48:42;101475.44;;;12.83
78225;BMP280;67498;53.650;10.090;2023-10-09T13:51:12;101465.34;;;12.81
78225;BMP280;67498;53.650;10.090;2023-10-09T13:53:45;101466.09;;;12.82
78225;BMP280;67498;53.650;10.090;2023-10-09T13:56:15;101457.88;;;12.80
78225;BMP280;67498;53.650;10.090;2023-10-09T14:01:11;101466.09;;;12.82
78225;BMP280;67498;53.650;10.090;2023-10-09T14:03:45;101477.25;;;12.89
78225;BMP280;67498;53.650;10.090;2023-10-09T14:06:15;101470.50;;;12.88
78225;BMP280;67498;53.650;10.090;2023-10-09T14:08:44;101470.16;;;12.86
78225;BMP280;67498;53.650;10.090;2023-10-09T14:11:10;101471.66;;;12.87
78225;BMP280;67498;53.650;10.090;2023-10-09T14:13:42;101478.38;;;12.88
78225;BMP280;67498;53.650;10.090;2023-10-09T14:16:07;101472.38;;;12.88
78225;BMP280;67498;53.650;10.090;2023-10-09T14:18:49;101476.88;;;12.91
78225;BMP280;67498;53.650;10.090;2023-10-09T14:21:18;101470.50;;;12.88
78225;BMP280;67498;53.650;10.090;2023-10-09T14:23:44;101475.34;;;12.93
78225;BMP280;67498;53.650;10.090;2023-10-09T14:26:12;101476.81;;;12.94
78225;BMP280;67498;53.650;10.090;2023-10-09T14:28:38;101479.81;;;12.97
78225;BMP280;67498;53.650;10.090;2023-10-09T14:31:03;101459.97;;;12.92
78225;BMP280;67498;53.650;10.090;2023-10-09T14:33:30;101456.66;;;12.88
78225;BMP280;67498;53.650;10.090;2023-10-09T14:36:01;101463.69;;;12.94
78225;BMP280;67498;53.650;10.090;2023-10-09T14:38:27;101455.53;;;12.89
78225;BMP280;67498;53.650;10.090;2023-10-09T14:40:52;101454.41;;;12.90
78225;BMP280;67498;53.650;10.090;2023-10-09T14:43:23;101463.78;;;12.91
78225;BMP280;67498;53.650;10.090;2023-10-09T14:45:53;101459.97;;;12.92
78225;BMP280;67498;53.650;10.090;2023-10-09T14:48:19;101465.97;;;12.92
78225;BMP280;67498;53.650;10.090;2023-10-09T14:50:51;101470.44;;;12.95